createdAt,value
2019-05-30T00:01:54.182Z,2.42
2019-05-30T00:04:23.835Z,2.57
2019-05-30T00:06:54.291Z,3.08
2019-05-30T00:09:24.003Z,2.70
2019-05-30T00:11:54.664Z,3.10
2019-05-30T00:14:24.445Z,3.08
2019-05-30T00:16:54.717Z,2.98
2019-05-30T00:19:24.757Z,2.70
2019-05-30T00:21:54.821Z,2.72
2019-05-30T00:24:25.787Z,2.90
2019-05-30T00:26:56.180Z,3.35
2019-05-30T00:29:25.811Z,2.77
2019-05-30T00:31:55.654Z,2.84
2019-05-30T00:34:25.630Z,3.30
2019-05-30T00:36:55.808Z,3.35
2019-05-30T00:39:25.981Z,2.95
2019-05-30T00:41:56.103Z,3.15
2019-05-30T00:44:26.195Z,3.17
2019-05-30T00:46:56.303Z,3.12
2019-05-30T00:49:29.482Z,3.08
2019-05-30T00:51:58.549Z,3.00
2019-05-30T00:54:27.903Z,3.30
2019-05-30T00:56:58.491Z,3.25
2019-05-30T00:59:27.994Z,3.10
2019-05-30T01:01:58.517Z,3.10
2019-05-30T01:04:28.004Z,3.35
2019-05-30T01:06:58.950Z,3.15
2019-05-30T01:09:28.502Z,3.45
2019-05-30T01:11:59.143Z,3.27
2019-05-30T01:14:28.663Z,3.60
2019-05-30T01:16:59.006Z,3.27
2019-05-30T01:19:28.503Z,3.33
2019-05-30T01:21:59.211Z,3.24
2019-05-30T01:24:28.783Z,3.30
2019-05-30T01:26:59.235Z,3.50
2019-05-30T01:29:29.198Z,3.33
2019-05-30T01:32:01.455Z,3.36
2019-05-30T01:34:31.252Z,3.10
2019-05-30T01:37:01.530Z,3.08
2019-05-30T01:39:32.084Z,3.58
2019-05-30T01:42:01.863Z,3.42
2019-05-30T01:44:31.200Z,3.20
2019-05-30T01:47:00.614Z,2.70
2019-05-30T01:49:30.313Z,2.85
2019-05-30T01:52:00.384Z,3.08
2019-05-30T01:54:30.429Z,3.55
2019-05-30T01:57:00.754Z,3.33
2019-05-30T01:59:31.149Z,3.10
2019-05-30T02:02:01.098Z,2.87
2019-05-30T02:04:31.487Z,3.23
2019-05-30T02:07:01.419Z,2.90
2019-05-30T02:09:31.613Z,2.95
2019-05-30T02:12:03.696Z,2.95
2019-05-30T02:14:33.178Z,3.17
2019-05-30T02:17:03.797Z,3.30
2019-05-30T02:19:34.235Z,2.83
2019-05-30T02:22:04.197Z,3.00
2019-05-30T02:24:33.551Z,2.97
2019-05-30T02:27:04.111Z,3.00
2019-05-30T02:29:33.523Z,3.02
2019-05-30T02:32:04.568Z,2.80
2019-05-30T02:34:34.323Z,2.87
2019-05-30T02:37:05.512Z,2.80
2019-05-30T02:42:05.181Z,2.98
2019-05-30T02:44:34.665Z,2.70
2019-05-30T02:47:05.441Z,2.90
2019-05-30T02:49:35.298Z,2.75
2019-05-30T02:52:08.183Z,2.70
2019-05-30T02:54:38.021Z,2.85
2019-05-30T02:57:07.983Z,2.50
2019-05-30T02:59:38.722Z,2.57
2019-05-30T03:02:13.803Z,2.77
2019-05-30T03:04:39.061Z,3.37
2019-05-30T03:07:10.305Z,2.70
2019-05-30T03:09:39.918Z,2.40
2019-05-30T03:12:11.483Z,2.70
2019-05-30T03:14:41.873Z,2.68
2019-05-30T03:17:12.589Z,3.20
2019-05-30T03:19:44.151Z,3.03
2019-05-30T03:22:14.012Z,3.60
2019-05-30T03:24:43.593Z,2.67
2019-05-30T03:27:14.185Z,3.15
2019-05-30T03:32:48.988Z,3.35
2019-05-30T03:34:43.632Z,3.20
2019-05-30T03:37:25.813Z,3.35
2019-05-30T03:39:44.135Z,3.52
2019-05-30T03:42:15.653Z,3.65
2019-05-30T03:44:44.897Z,3.20
2019-05-30T03:47:17.851Z,3.55
2019-05-30T03:49:49.025Z,3.25
2019-05-30T03:52:18.986Z,3.10
2019-05-30T03:54:49.975Z,3.03
2019-05-30T03:57:28.390Z,3.85
2019-05-30T04:00:14.490Z,2.70
2019-05-30T04:02:57.991Z,3.50
2019-05-30T04:05:29.269Z,3.25
2019-05-30T04:08:01.211Z,3.22
2019-05-30T04:10:33.650Z,3.42
2019-05-30T04:13:27.378Z,3.33
2019-05-30T04:15:56.765Z,3.17
2019-05-30T04:18:26.282Z,3.47
2019-05-30T04:20:55.680Z,3.20
2019-05-30T04:23:25.093Z,3.10
2019-05-30T04:25:54.415Z,3.15
2019-05-30T04:28:24.008Z,2.75
2019-05-30T04:30:53.394Z,3.00
2019-05-30T04:33:32.487Z,3.50
2019-05-30T04:35:53.818Z,3.40
2019-05-30T04:38:23.171Z,3.17
2019-05-30T04:40:52.489Z,3.02
2019-05-30T04:43:21.800Z,2.98
2019-05-30T04:45:51.193Z,3.47
2019-05-30T04:48:21.328Z,3.30
2019-05-30T04:50:51.113Z,2.87
2019-05-30T04:53:21.153Z,3.05
2019-05-30T04:55:50.621Z,3.15
2019-05-30T04:58:25.629Z,3.15
2019-05-30T05:00:55.116Z,2.80
2019-05-30T05:03:44.064Z,2.85
2019-05-30T05:05:57.461Z,3.47
2019-05-30T05:08:26.880Z,3.20
2019-05-30T05:10:57.910Z,2.95
2019-05-30T05:13:28.245Z,2.75
2019-05-30T05:15:57.701Z,2.73
2019-05-30T05:18:27.036Z,3.17
2019-05-30T05:20:56.422Z,3.00
2019-05-30T05:23:26.779Z,2.73
2019-05-30T05:26:00.703Z,2.87
2019-05-30T05:28:27.132Z,2.92
2019-05-30T05:30:56.449Z,3.25
2019-05-30T05:33:25.785Z,2.87
2019-05-30T05:35:55.225Z,3.70
2019-05-30T05:38:24.656Z,3.08
2019-05-30T05:40:54.143Z,3.17
2019-05-30T05:43:24.491Z,2.80
2019-05-30T05:45:53.937Z,3.30
2019-05-30T05:48:24.574Z,3.12
2019-05-30T05:50:54.260Z,3.22
2019-05-30T05:53:24.963Z,3.42
2019-05-30T05:55:54.717Z,3.20
2019-05-30T05:58:26.987Z,3.10
2019-05-30T06:00:57.436Z,3.53
2019-05-30T06:03:26.815Z,3.17
2019-05-30T06:05:57.823Z,3.17
2019-05-30T06:08:28.589Z,3.85
2019-05-30T06:10:57.996Z,3.25
2019-05-30T06:13:27.331Z,2.98
2019-05-30T06:15:56.684Z,3.35
2019-05-30T06:18:26.351Z,2.87
2019-05-30T06:20:57.967Z,3.03
2019-05-30T06:23:27.790Z,3.43
2019-05-30T06:25:57.228Z,3.17
2019-05-30T06:28:26.568Z,3.05
2019-05-30T06:30:58.902Z,3.25
2019-05-30T06:35:57.072Z,2.90
2019-05-30T06:38:27.399Z,2.60
2019-05-30T06:41:01.051Z,3.20
2019-05-30T06:43:30.426Z,2.60
2019-05-30T06:45:59.769Z,3.22
2019-05-30T06:48:29.091Z,3.12
2019-05-30T06:50:58.395Z,3.02
2019-05-30T06:53:27.788Z,3.00
2019-05-30T06:55:57.116Z,3.20
2019-05-30T06:58:43.643Z,3.72
2019-05-30T07:00:57.578Z,3.30
2019-05-30T07:03:28.351Z,3.30
2019-05-30T07:08:27.208Z,3.27
2019-05-30T07:10:56.508Z,3.52
2019-05-30T07:13:27.125Z,3.88
2019-05-30T07:15:56.869Z,4.08
2019-05-30T07:18:27.433Z,4.00
2019-05-30T07:20:58.418Z,3.80
2019-05-30T07:23:27.915Z,4.20
2019-05-30T07:25:57.236Z,4.45
2019-05-30T07:28:27.820Z,4.15
2019-05-30T07:30:57.169Z,4.55
2019-05-30T07:33:26.501Z,4.17
2019-05-30T07:35:56.443Z,4.53
2019-05-30T07:38:26.362Z,3.93
2019-05-30T07:40:55.713Z,4.72
2019-05-30T07:43:27.074Z,4.70
2019-05-30T07:45:58.283Z,3.92
2019-05-30T07:48:28.076Z,4.60
2019-05-30T07:50:57.388Z,4.63
2019-05-30T07:53:28.680Z,4.20
2019-05-30T07:55:58.054Z,4.08
2019-05-30T07:58:27.366Z,3.87
2019-05-30T08:00:58.215Z,4.17
2019-05-30T08:05:56.025Z,3.83
2019-05-30T08:08:25.443Z,3.90
2019-05-30T08:11:08.390Z,4.17
2019-05-30T08:13:26.989Z,3.60
2019-05-30T08:15:56.304Z,4.07
2019-05-30T08:18:25.743Z,3.70
2019-05-30T08:20:55.724Z,3.30
2019-05-30T08:23:25.837Z,3.85
2019-05-30T08:25:55.821Z,3.27
2019-05-30T08:28:28.732Z,3.10
2019-05-30T08:30:58.813Z,3.37
2019-05-30T08:33:29.562Z,3.30
2019-05-30T08:36:00.029Z,3.02
2019-05-30T08:38:29.341Z,2.98
2019-05-30T08:40:58.676Z,2.98
2019-05-30T08:43:29.220Z,2.83
2019-05-30T08:45:58.696Z,3.10
2019-05-30T08:48:28.028Z,2.77
2019-05-30T08:50:57.496Z,2.87
2019-05-30T08:53:27.644Z,3.55
2019-05-30T08:55:58.165Z,2.60
2019-05-30T08:58:27.917Z,2.60
2019-05-30T09:00:58.015Z,2.45
2019-05-30T09:03:28.268Z,2.20
2019-05-30T09:06:03.854Z,2.58
2019-05-30T09:08:31.093Z,2.85
2019-05-30T09:11:00.663Z,2.35
2019-05-30T09:13:30.229Z,3.10
2019-05-30T09:15:59.794Z,3.37
2019-05-30T09:18:29.979Z,3.50
2019-05-30T09:20:59.596Z,2.70
2019-05-30T09:23:29.407Z,4.15
2019-05-30T09:26:02.946Z,5.67
2019-05-30T09:28:32.437Z,3.83
2019-05-30T09:31:03.390Z,3.42
2019-05-30T09:33:32.812Z,2.60
2019-05-30T09:36:12.740Z,2.72
2019-05-30T09:38:34.183Z,3.70
2019-05-30T09:41:03.533Z,3.20
2019-05-30T09:43:32.892Z,3.30
2019-05-30T09:46:04.826Z,2.95
2019-05-30T09:48:34.459Z,3.52
2019-05-30T09:51:03.963Z,2.92
2019-05-30T09:53:33.349Z,3.30
2019-05-30T09:56:02.759Z,3.52
2019-05-30T09:58:32.189Z,3.50
2019-05-30T10:01:01.897Z,3.50
2019-05-30T10:03:33.372Z,3.10
2019-05-30T10:06:02.710Z,2.70
2019-05-30T10:08:33.955Z,3.30
2019-05-30T10:11:03.306Z,3.95
2019-05-30T10:13:34.263Z,3.40
2019-05-30T10:16:11.056Z,3.20
2019-05-30T10:18:42.557Z,3.15
2019-05-30T10:21:13.611Z,3.35
2019-05-30T10:23:45.724Z,2.92
2019-05-30T10:26:15.644Z,3.10
2019-05-30T10:28:46.099Z,2.77
2019-05-30T10:31:16.184Z,3.35
2019-05-30T10:33:49.762Z,3.50
2019-05-30T10:36:20.426Z,3.12
2019-05-30T10:38:50.501Z,2.90
2019-05-30T10:41:20.679Z,3.58
2019-05-30T10:43:51.132Z,2.72
2019-05-30T10:46:20.771Z,2.95
2019-05-30T10:48:50.894Z,3.02
2019-05-30T10:51:21.450Z,3.33
2019-05-30T10:53:52.207Z,3.00
2019-05-30T10:58:50.804Z,3.22
2019-05-30T11:01:21.976Z,2.85
2019-05-30T11:03:52.532Z,3.17
2019-05-30T11:06:27.813Z,3.22
2019-05-30T11:09:00.277Z,3.67
2019-05-30T11:11:29.656Z,3.10
2019-05-30T11:13:59.074Z,3.87
2019-05-30T11:16:28.433Z,4.37
2019-05-30T11:18:58.020Z,3.50
2019-05-30T11:21:27.518Z,3.02
2019-05-30T11:23:56.934Z,3.17
2019-05-30T11:26:27.821Z,3.40
2019-05-30T11:28:57.260Z,3.95
2019-05-30T11:31:26.567Z,3.80
2019-05-30T11:33:57.097Z,3.62
2019-05-30T11:36:29.653Z,3.30
2019-05-30T11:38:59.471Z,3.30
2019-05-30T11:41:28.924Z,3.50
2019-05-30T11:43:59.759Z,3.97
2019-05-30T11:46:30.410Z,3.98
2019-05-30T11:49:00.084Z,3.60
2019-05-30T11:51:29.566Z,4.72
2019-05-30T11:54:01.001Z,3.70
2019-05-30T11:59:00.132Z,4.28
2019-05-30T12:01:29.491Z,4.10
2019-05-30T12:03:58.845Z,4.55
2019-05-30T12:06:28.287Z,4.25
2019-05-30T12:08:59.148Z,4.10
2019-05-30T12:11:28.504Z,3.98
2019-05-30T12:13:59.648Z,4.65
2019-05-30T12:16:29.076Z,4.50
2019-05-30T12:18:59.733Z,4.92
2019-05-30T12:21:30.115Z,4.13
2019-05-30T12:24:02.643Z,4.50
2019-05-30T12:26:33.979Z,3.95
2019-05-30T12:29:04.431Z,4.15
2019-05-30T12:31:34.703Z,4.00
2019-05-30T12:34:04.138Z,4.28
2019-05-30T12:36:33.559Z,4.72
2019-05-30T12:39:03.774Z,4.72
2019-05-30T12:41:33.154Z,4.37
2019-05-30T12:44:03.381Z,4.25
2019-05-30T12:46:32.788Z,4.80
2019-05-30T12:49:03.509Z,4.40
2019-05-30T12:51:33.230Z,4.80
2019-05-30T12:54:02.813Z,4.95
2019-05-30T12:56:32.290Z,5.23
2019-05-30T12:59:02.918Z,5.77
2019-05-30T13:01:32.575Z,5.60
2019-05-30T13:04:03.115Z,5.00
2019-05-30T13:06:32.786Z,5.00
2019-05-30T13:09:03.236Z,4.97
2019-05-30T13:11:33.423Z,5.28
2019-05-30T13:14:02.817Z,4.53
2019-05-30T13:16:32.215Z,4.75
2019-05-30T13:19:02.228Z,5.03
2019-05-30T13:21:31.965Z,4.87
2019-05-30T13:24:01.775Z,4.80
2019-05-30T13:26:31.477Z,5.07
2019-05-30T13:29:02.176Z,4.80
2019-05-30T13:31:32.501Z,5.37
2019-05-30T13:34:02.925Z,5.10
2019-05-30T13:36:32.503Z,5.87
2019-05-30T13:39:05.247Z,5.40
2019-05-30T13:41:34.685Z,5.25
2019-05-30T13:44:06.456Z,4.97
2019-05-30T13:46:35.089Z,5.10
2019-05-30T13:49:04.804Z,5.12
2019-05-30T13:51:34.448Z,5.17
2019-05-30T13:54:05.199Z,5.03
2019-05-30T13:56:34.866Z,5.58
2019-05-30T13:59:04.338Z,5.12
2019-05-30T14:01:33.668Z,4.58
2019-05-30T14:04:03.480Z,5.67
2019-05-30T14:06:35.742Z,4.33
2019-05-30T14:09:06.878Z,6.22
2019-05-30T14:11:38.323Z,5.90
2019-05-30T14:16:36.197Z,5.00
2019-05-30T14:19:09.328Z,5.50
2019-05-30T14:21:37.037Z,4.60
2019-05-30T14:24:07.442Z,4.83
2019-05-30T14:26:36.911Z,5.33
2019-05-30T14:29:06.218Z,4.65
2019-05-30T14:31:35.530Z,4.85
2019-05-30T14:34:06.145Z,5.42
2019-05-30T14:36:35.457Z,4.80
2019-05-30T14:39:06.897Z,4.92
2019-05-30T14:41:36.351Z,5.00
2019-05-30T14:44:07.172Z,4.60
2019-05-30T14:46:36.542Z,4.50
2019-05-30T14:49:06.506Z,4.92
2019-05-30T14:51:36.027Z,4.97
2019-05-30T14:54:05.359Z,4.30
2019-05-30T14:56:34.638Z,5.05
2019-05-30T14:59:04.929Z,4.33
2019-05-30T15:01:34.291Z,4.90
2019-05-30T15:04:03.662Z,4.55
2019-05-30T15:06:33.040Z,4.25
2019-05-30T15:09:15.201Z,4.03
2019-05-30T15:14:01.810Z,3.83
2019-05-30T15:16:31.119Z,3.98
2019-05-30T15:19:00.443Z,3.95
2019-05-30T15:21:29.770Z,4.37
2019-05-30T15:23:59.156Z,4.00
2019-05-30T15:26:28.484Z,4.30
2019-05-30T15:28:59.746Z,4.30
2019-05-30T15:31:29.102Z,4.30
2019-05-30T15:33:58.467Z,4.17
2019-05-30T15:36:27.764Z,4.28
2019-05-30T15:38:57.104Z,3.60
2019-05-30T15:41:26.497Z,4.30
2019-05-30T15:43:55.823Z,4.03
2019-05-30T15:46:25.208Z,4.20
2019-05-30T15:48:54.529Z,4.17
2019-05-30T15:51:24.248Z,3.77
2019-05-30T15:53:54.481Z,4.03
2019-05-30T15:56:24.565Z,3.85
2019-05-30T15:58:54.940Z,3.80
2019-05-30T16:01:24.877Z,3.62
2019-05-30T16:03:55.091Z,3.75
2019-05-30T16:06:25.708Z,4.17
2019-05-30T16:08:55.301Z,4.00
2019-05-30T16:11:25.499Z,3.72
2019-05-30T16:13:56.435Z,3.60
2019-05-30T16:16:39.067Z,3.50
2019-05-30T16:18:56.861Z,4.22
2019-05-30T16:21:26.187Z,3.93
2019-05-30T16:23:56.437Z,3.85
2019-05-30T16:26:26.419Z,3.50
2019-05-30T16:28:56.634Z,3.65
2019-05-30T16:31:26.830Z,3.72
2019-05-30T16:33:56.976Z,3.55
2019-05-30T16:36:27.036Z,2.45
2019-05-30T16:38:57.459Z,2.72
2019-05-30T16:41:27.870Z,2.72
2019-05-30T16:43:57.451Z,2.80
2019-05-30T16:46:27.715Z,2.80
2019-05-30T16:48:57.800Z,2.75
2019-05-30T16:51:28.025Z,3.12
2019-05-30T16:53:58.595Z,3.08
2019-05-30T16:56:28.279Z,3.45
2019-05-30T16:58:59.042Z,3.30
2019-05-30T17:01:28.646Z,3.47
2019-05-30T17:03:58.804Z,2.80
2019-05-30T17:06:29.077Z,3.02
2019-05-30T17:08:59.024Z,3.10
2019-05-30T17:11:29.285Z,4.12
2019-05-30T17:13:59.347Z,3.27
2019-05-30T17:16:30.795Z,3.47
2019-05-30T17:19:00.517Z,3.25
2019-05-30T17:21:30.014Z,3.65
2019-05-30T17:24:00.207Z,3.10
2019-05-30T17:26:30.314Z,3.30
2019-05-30T17:29:00.559Z,2.95
2019-05-30T17:31:30.571Z,3.30
2019-05-30T17:34:00.909Z,3.75
2019-05-30T17:36:30.975Z,3.00
2019-05-30T17:39:01.158Z,3.10
2019-05-30T17:41:32.126Z,3.17
2019-05-30T17:44:01.463Z,3.00
2019-05-30T17:46:31.652Z,3.00
2019-05-30T17:49:01.771Z,2.83
2019-05-30T17:51:32.032Z,2.92
2019-05-30T17:54:03.136Z,2.90
2019-05-30T17:56:32.522Z,2.75
2019-05-30T17:59:02.590Z,2.70
2019-05-30T18:01:32.495Z,3.10
2019-05-30T18:04:05.433Z,2.80
2019-05-30T18:06:34.947Z,3.25
2019-05-30T18:09:06.875Z,2.55
2019-05-30T18:11:36.311Z,3.17
2019-05-30T18:14:05.753Z,2.50
2019-05-30T18:16:35.382Z,2.60
2019-05-30T18:19:04.857Z,2.90
2019-05-30T18:21:34.282Z,3.27
2019-05-30T18:24:03.849Z,2.65
2019-05-30T18:26:34.018Z,2.95
2019-05-30T18:29:04.293Z,3.00
2019-05-30T18:31:34.321Z,3.22
2019-05-30T18:34:04.671Z,3.10
2019-05-30T18:36:34.663Z,3.25
2019-05-30T18:39:07.415Z,3.10
2019-05-30T18:41:36.788Z,2.90
2019-05-30T18:44:06.323Z,3.00
2019-05-30T18:46:38.546Z,2.83
2019-05-30T18:49:06.742Z,2.75
2019-05-30T18:51:37.035Z,3.10
2019-05-30T18:54:06.386Z,3.05
2019-05-30T18:56:36.962Z,2.95
2019-05-30T18:59:06.473Z,2.57
2019-05-30T19:01:37.768Z,3.08
2019-05-30T19:04:07.315Z,3.30
2019-05-30T19:06:36.825Z,2.77
2019-05-30T19:09:07.568Z,2.95
2019-05-30T19:11:38.269Z,2.90
2019-05-30T19:14:08.132Z,3.22
2019-05-30T19:16:37.493Z,2.80
2019-05-30T19:19:07.337Z,2.85
2019-05-30T19:21:37.600Z,2.77
2019-05-30T19:24:07.780Z,3.02
2019-05-30T19:26:37.964Z,2.45
2019-05-30T19:29:08.122Z,2.95
2019-05-30T19:31:38.374Z,2.70
2019-05-30T19:34:08.410Z,2.83
2019-05-30T19:36:39.356Z,2.60
2019-05-30T19:39:08.692Z,3.17
2019-05-30T19:41:53.806Z,3.02
2019-05-30T19:44:10.525Z,3.08
2019-05-30T19:46:39.873Z,2.77
2019-05-30T19:49:09.201Z,2.67
2019-05-30T19:51:39.344Z,3.30
2019-05-30T19:54:09.476Z,2.70
2019-05-30T19:56:41.879Z,3.20
2019-05-30T19:59:10.790Z,3.10
2019-05-30T20:01:40.160Z,3.70
2019-05-30T20:04:10.128Z,3.47
2019-05-30T20:06:40.865Z,3.25
2019-05-30T20:09:10.361Z,3.65
2019-05-30T20:11:41.545Z,3.65
2019-05-30T20:14:12.883Z,3.12
2019-05-30T20:16:42.194Z,3.58
2019-05-30T20:19:11.500Z,3.75
2019-05-30T20:21:42.036Z,3.52
2019-05-30T20:24:11.638Z,3.30
2019-05-30T20:26:42.559Z,3.60
2019-05-30T20:29:12.368Z,3.15
2019-05-30T20:31:43.639Z,3.02
2019-05-30T20:36:42.681Z,3.30
2019-05-30T20:39:12.403Z,3.58
2019-05-30T20:41:43.197Z,3.67
2019-05-30T20:44:12.759Z,3.65
2019-05-30T20:46:43.330Z,3.75
2019-05-30T20:49:13.042Z,3.17
2019-05-30T20:51:43.470Z,3.22
2019-05-30T20:54:13.334Z,3.20
2019-05-30T20:56:44.147Z,2.80
2019-05-30T20:59:14.632Z,3.00
2019-05-30T21:01:43.990Z,3.20
2019-05-30T21:04:13.935Z,3.00
2019-05-30T21:06:44.250Z,2.35
2019-05-30T21:09:27.819Z,2.50
2019-05-30T21:11:46.540Z,2.12
2019-05-30T21:14:17.607Z,3.08
2019-05-30T21:16:50.369Z,2.50
2019-05-30T21:19:19.901Z,2.15
2019-05-30T21:21:49.201Z,2.45
2019-05-30T21:24:19.503Z,2.37
2019-05-30T21:26:48.795Z,2.20
2019-05-30T21:29:18.322Z,2.10
2019-05-30T21:31:48.768Z,2.40
2019-05-30T21:34:19.168Z,2.10
2019-05-30T21:36:49.529Z,2.50
2019-05-30T21:39:18.899Z,2.33
2019-05-30T21:41:48.558Z,1.82
2019-05-30T21:44:19.655Z,2.17
2019-05-30T21:46:49.323Z,2.13
2019-05-30T21:49:18.654Z,1.95
2019-05-30T21:51:48.015Z,2.20
2019-05-30T21:54:18.363Z,2.10
2019-05-30T21:56:48.431Z,2.30
2019-05-30T21:59:18.010Z,2.10
2019-05-30T22:01:48.721Z,2.10
2019-05-30T22:04:18.119Z,2.10
2019-05-30T22:06:48.952Z,2.33
2019-05-30T22:09:19.966Z,2.40
2019-05-30T22:11:49.682Z,2.40
2019-05-30T22:14:19.068Z,2.10
2019-05-30T22:16:50.128Z,2.12
2019-05-30T22:19:19.551Z,2.42
2019-05-30T22:21:50.180Z,2.60
2019-05-30T22:24:19.782Z,3.02
2019-05-30T22:26:50.614Z,2.80
2019-05-30T22:29:20.105Z,2.83
2019-05-30T22:31:51.037Z,2.50
2019-05-30T22:34:21.526Z,2.90
2019-05-30T22:36:51.007Z,2.50
2019-05-30T22:39:20.315Z,2.80
2019-05-30T22:41:50.311Z,2.10
2019-05-30T22:44:20.449Z,2.40
2019-05-30T22:46:50.696Z,2.70
2019-05-30T22:49:21.040Z,2.20
2019-05-30T22:51:51.151Z,2.45
2019-05-30T22:54:21.001Z,2.58
2019-05-30T22:56:51.539Z,2.20
2019-05-30T22:59:21.898Z,2.33
2019-05-30T23:01:52.293Z,2.54
2019-05-30T23:04:22.901Z,2.60
2019-05-30T23:06:54.429Z,2.50
2019-05-30T23:09:24.122Z,2.40
2019-05-30T23:11:53.896Z,2.33
2019-05-30T23:14:23.383Z,2.43
2019-05-30T23:16:52.783Z,2.98
2019-05-30T23:19:22.553Z,2.33
2019-05-30T23:21:53.314Z,2.52
2019-05-30T23:24:22.963Z,2.60
2019-05-30T23:26:53.784Z,2.90
2019-05-30T23:29:25.726Z,2.25
2019-05-30T23:31:56.094Z,2.40
2019-05-30T23:34:25.530Z,2.30
2019-05-30T23:36:54.836Z,2.85
2019-05-30T23:39:24.151Z,2.98
2019-05-30T23:41:55.195Z,2.87
2019-05-30T23:44:24.617Z,2.37
2019-05-30T23:46:55.583Z,3.10
2019-05-30T23:49:25.081Z,2.70
2019-05-30T23:51:56.125Z,2.70
2019-05-30T23:54:25.603Z,2.77
2019-05-30T23:56:56.406Z,3.08
2019-05-30T23:59:25.859Z,3.20
